Decoded Metar for KCVW ( in ) (IATA:) | Meteo·Mobile Aviation Weather
aviador You're here:

KCVW Decoded Metar

in
Report Time2019-02-23 09:00:00
UTC Time2019-02-23 09:20:55
Flight Rules lifr LIFR
Wind150° at 06 kt
W.Rank150° ranks 4
Current wind is below 150° avg. (8.6)
Visibility402 m
Phenomena:Fog
Clouds:Overcast 002 Hf
Ceiling200 ft
Temp19°C
Dew Point19°C (100% RH)
QNH1012 hPa
Raw Report
KCVW 230900Z AUTO 15006KT M1/4SM FG OVC002 19/19 A2989 RMK A01=

Extra information for KCVW:More info

Social comments